Time,TemperatureF,DewpointF,PressureIn,WindDirection,WindDirectionDegrees,WindSpeedMPH,WindSpeedGustMPH,Humidity,HourlyPrecipIn,Conditions,Clouds,dailyrainin,SolarRadiationWatts/m^2,SoftwareType,DateUTC
2013-03-06 00:01:00,33.0,1.0,-100.00,West,259,4.0,11.0,25,0.00,,,0.05,1.000000,,2013-03-06 07:01:00,
2013-03-06 00:11:00,33.0,1.0,-100.00,West,259,4.0,11.0,25,0.00,,,0.05,1.000000,,2013-03-06 07:11:00,
2013-03-06 00:22:00,33.0,1.0,-100.00,West,259,4.0,11.0,25,0.00,,,0.05,1.000000,,2013-03-06 07:22:00,
2013-03-06 00:52:00,28.0,7.0,-100.00,West,266,3.0,7.0,41,0.00,,,0.05,1.000000,,2013-03-06 07:52:00,
2013-03-06 01:01:00,28.0,7.0,-100.00,West,266,3.0,7.0,41,0.00,,,0.05,1.000000,,2013-03-06 08:01:00,
2013-03-06 01:11:00,28.0,7.0,-100.00,West,266,3.0,7.0,41,0.00,,,0.05,1.000000,,2013-03-06 08:11:00,
2013-03-06 01:21:00,28.0,7.0,-100.00,West,266,3.0,7.0,41,0.00,,,0.05,1.000000,,2013-03-06 08:21:00,
2013-03-06 01:52:00,32.0,3.0,-100.00,West,271,4.0,12.0,28,0.00,,,0.05,1.000000,,2013-03-06 08:52:00,
2013-03-06 02:01:00,32.0,3.0,-100.00,West,271,4.0,12.0,28,0.00,,,0.05,1.000000,,2013-03-06 09:01:00,
2013-03-06 02:12:00,32.0,3.0,-100.00,West,271,4.0,12.0,28,0.00,,,0.05,1.000000,,2013-03-06 09:12:00,
2013-03-06 02:21:00,32.0,3.0,-100.00,West,271,4.0,12.0,28,0.00,,,0.05,1.000000,,2013-03-06 09:21:00,
2013-03-06 02:52:00,39.0,-2.0,-100.00,West,277,8.0,15.0,17,0.00,,,0.05,1.000000,,2013-03-06 09:52:00,
2013-03-06 03:01:00,39.0,-2.0,-100.00,West,277,8.0,15.0,17,0.00,,,0.05,1.000000,,2013-03-06 10:01:00,
2013-03-06 03:11:00,39.0,-2.0,-100.00,West,277,8.0,15.0,17,0.00,,,0.05,1.000000,,2013-03-06 10:11:00,
2013-03-06 03:21:00,39.0,-2.0,-100.00,West,277,8.0,15.0,17,0.00,,,0.05,1.000000,,2013-03-06 10:21:00,
2013-03-06 03:52:00,36.0,-1.0,-100.00,WNW,284,4.0,13.0,20,0.00,,,0.05,1.000000,,2013-03-06 10:52:00,
2013-03-06 04:02:00,36.0,-1.0,-100.00,WNW,284,4.0,13.0,20,0.00,,,0.05,1.000000,,2013-03-06 11:02:00,
2013-03-06 04:11:00,36.0,-1.0,-100.00,WNW,284,4.0,13.0,20,0.00,,,0.05,1.000000,,2013-03-06 11:11:00,
2013-03-06 04:22:00,36.0,-1.0,-100.00,WNW,284,4.0,13.0,20,0.00,,,0.05,1.000000,,2013-03-06 11:22:00,
2013-03-06 04:52:00,35.0,3.0,-100.00,WNW,291,4.0,9.0,25,0.00,,,0.05,1.000000,,2013-03-06 11:52:00,
2013-03-06 05:02:00,35.0,3.0,-100.00,WNW,291,4.0,9.0,25,0.00,,,0.05,1.000000,,2013-03-06 12:02:00,
2013-03-06 05:11:00,35.0,3.0,-100.00,WNW,291,4.0,9.0,25,0.00,,,0.05,1.000000,,2013-03-06 12:11:00,
2013-03-06 05:21:00,35.0,3.0,-100.00,WNW,291,4.0,9.0,25,0.00,,,0.05,1.000000,,2013-03-06 12:21:00,
2013-03-06 05:53:00,38.0,2.0,-100.00,WNW,284,6.0,11.0,21,0.00,,,0.05,1.000000,,2013-03-06 12:53:00,
2013-03-06 06:02:00,38.0,2.0,-100.00,WNW,284,6.0,11.0,21,0.00,,,0.05,1.000000,,2013-03-06 13:02:00,
2013-03-06 06:12:00,38.0,2.0,-100.00,WNW,284,6.0,11.0,21,0.00,,,0.05,1.000000,,2013-03-06 13:12:00,
2013-03-06 06:22:00,38.0,2.0,-100.00,WNW,284,6.0,11.0,21,0.00,,,0.05,1.000000,,2013-03-06 13:22:00,
2013-03-06 06:52:00,38.0,4.0,-100.00,West,273,6.0,12.0,24,0.00,,,0.05,1.000000,,2013-03-06 13:52:00,
2013-03-06 07:01:00,38.0,4.0,-100.00,West,273,6.0,12.0,24,0.00,,,0.05,1.000000,,2013-03-06 14:01:00,
2013-03-06 07:11:00,38.0,4.0,-100.00,West,273,6.0,12.0,24,0.00,,,0.05,1.000000,,2013-03-06 14:11:00,
2013-03-06 07:22:00,38.0,4.0,-100.00,West,273,6.0,12.0,24,0.00,,,0.05,1.000000,,2013-03-06 14:22:00,
2013-03-06 07:52:00,42.0,5.0,-100.00,West,274,10.0,17.0,21,0.00,,,0.05,13.000000,,2013-03-06 14:52:00,
2013-03-06 08:02:00,42.0,5.0,-100.00,West,274,10.0,17.0,21,0.00,,,0.05,13.000000,,2013-03-06 15:02:00,
2013-03-06 08:11:00,42.0,5.0,-100.00,West,274,10.0,17.0,21,0.00,,,0.05,13.000000,,2013-03-06 15:11:00,
2013-03-06 08:21:00,42.0,5.0,-100.00,West,274,10.0,17.0,21,0.00,,,0.05,13.000000,,2013-03-06 15:21:00,
2013-03-06 08:52:00,46.0,9.0,-100.00,West,268,8.0,19.0,22,0.00,,,0.05,147.000000,,2013-03-06 15:52:00,
2013-03-06 09:02:00,46.0,9.0,-100.00,West,268,8.0,19.0,22,0.00,,,0.05,147.000000,,2013-03-06 16:02:00,
2013-03-06 09:11:00,46.0,9.0,-100.00,West,268,8.0,19.0,22,0.00,,,0.05,147.000000,,2013-03-06 16:11:00,
2013-03-06 09:21:00,46.0,9.0,-100.00,West,268,8.0,19.0,22,0.00,,,0.05,147.000000,,2013-03-06 16:21:00,
2013-03-06 09:52:00,52.0,9.0,-100.00,West,276,8.0,14.0,17,0.00,,,0.03,364.000000,,2013-03-06 16:52:00,
2013-03-06 10:01:00,52.0,9.0,-100.00,West,276,8.0,14.0,17,0.00,,,0.03,364.000000,,2013-03-06 17:01:00,
2013-03-06 10:11:00,52.0,9.0,-100.00,West,276,8.0,14.0,17,0.00,,,0.03,364.000000,,2013-03-06 17:11:00,
2013-03-06 10:21:00,52.0,9.0,-100.00,West,276,8.0,14.0,17,0.00,,,0.03,364.000000,,2013-03-06 17:21:00,
2013-03-06 10:25:00,58.0,12.0,-100.00,East,97,4.0,14.0,16,0.00,,,0.00,555.000000,,2013-03-06 17:25:00,
2013-03-06 10:53:00,58.0,12.0,-100.00,East,97,4.0,14.0,16,0.00,,,0.00,555.000000,,2013-03-06 17:53:00,
2013-03-06 11:02:00,58.0,12.0,-100.00,East,97,4.0,14.0,16,0.00,,,0.00,555.000000,,2013-03-06 18:02:00,
2013-03-06 11:53:00,56.0,10.0,-100.00,East,92,5.0,8.0,16,0.00,,,0.00,690.000000,,2013-03-06 18:53:00,
2013-03-06 12:02:00,56.0,10.0,-100.00,East,92,5.0,8.0,16,0.00,,,0.00,690.000000,,2013-03-06 19:02:00,
2013-03-06 12:11:00,56.0,10.0,-100.00,East,92,5.0,8.0,16,0.00,,,0.00,690.000000,,2013-03-06 19:11:00,
2013-03-06 12:22:00,56.0,10.0,-100.00,East,92,5.0,8.0,16,0.00,,,0.00,690.000000,,2013-03-06 19:22:00,
2013-03-06 12:53:00,56.0,10.0,-100.00,East,90,5.0,10.0,16,0.00,,,0.00,772.000000,,2013-03-06 19:53:00,
2013-03-06 13:02:00,56.0,10.0,-100.00,East,90,5.0,10.0,16,0.00,,,0.00,772.000000,,2013-03-06 20:02:00,
2013-03-06 13:12:00,56.0,10.0,-100.00,East,90,5.0,10.0,16,0.00,,,0.00,772.000000,,2013-03-06 20:12:00,
2013-03-06 13:22:00,56.0,10.0,-100.00,East,90,5.0,10.0,16,0.00,,,0.00,772.000000,,2013-03-06 20:22:00,
2013-03-06 13:53:00,55.0,7.0,-100.00,ENE,78,5.0,9.0,14,0.00,,,0.00,788.000000,,2013-03-06 20:53:00,
2013-03-06 14:02:00,55.0,7.0,-100.00,ENE,78,5.0,9.0,14,0.00,,,0.00,788.000000,,2013-03-06 21:02:00,
2013-03-06 14:12:00,55.0,7.0,-100.00,ENE,78,5.0,9.0,14,0.00,,,0.00,788.000000,,2013-03-06 21:12:00,
2013-03-06 14:22:00,55.0,7.0,-100.00,ENE,78,5.0,9.0,14,0.00,,,0.00,788.000000,,2013-03-06 21:22:00,
2013-03-06 14:52:00,56.0,24.0,-100.00,East,93,4.0,9.0,29,0.00,,,0.00,738.000000,,2013-03-06 21:52:00,
2013-03-06 15:02:00,56.0,24.0,-100.00,East,93,4.0,9.0,29,0.00,,,0.00,738.000000,,2013-03-06 22:02:00,
2013-03-06 15:11:00,56.0,24.0,-100.00,East,93,4.0,9.0,29,0.00,,,0.00,738.000000,,2013-03-06 22:11:00,
2013-03-06 15:22:00,56.0,24.0,-100.00,East,93,4.0,9.0,29,0.00,,,0.00,738.000000,,2013-03-06 22:22:00,
2013-03-06 15:52:00,52.0,25.0,-100.00,East,94,4.0,9.0,35,0.00,,,0.00,585.000000,,2013-03-06 22:52:00,
2013-03-06 16:01:00,52.0,25.0,-100.00,East,94,4.0,9.0,35,0.00,,,0.00,585.000000,,2013-03-06 23:01:00,
2013-03-06 16:11:00,52.0,25.0,-100.00,East,94,4.0,9.0,35,0.00,,,0.00,585.000000,,2013-03-06 23:11:00,
2013-03-06 16:21:00,52.0,25.0,-100.00,East,94,4.0,9.0,35,0.00,,,0.00,585.000000,,2013-03-06 23:21:00,
2013-03-06 16:52:00,54.0,23.0,-100.00,East,94,3.0,7.0,30,0.00,,,0.00,411.000000,,2013-03-06 23:52:00,
2013-03-06 17:02:00,54.0,23.0,-100.00,East,94,3.0,7.0,30,0.00,,,0.00,411.000000,,2013-03-07 00:02:00,
2013-03-06 17:11:00,54.0,23.0,-100.00,East,94,3.0,7.0,30,0.00,,,0.00,411.000000,,2013-03-07 00:11:00,
2013-03-06 17:21:00,54.0,23.0,-100.00,East,94,3.0,7.0,30,0.00,,,0.00,411.000000,,2013-03-07 00:21:00,
2013-03-06 17:52:00,51.0,18.0,-100.00,East,86,3.0,9.0,27,0.00,,,0.00,250.000000,,2013-03-07 00:52:00,
2013-03-06 18:01:00,51.0,18.0,-100.00,East,86,3.0,9.0,27,0.00,,,0.00,250.000000,,2013-03-07 01:01:00,
2013-03-06 18:11:00,51.0,18.0,-100.00,East,86,3.0,9.0,27,0.00,,,0.00,250.000000,,2013-03-07 01:11:00,
2013-03-06 18:21:00,51.0,18.0,-100.00,East,86,3.0,9.0,27,0.00,,,0.00,250.000000,,2013-03-07 01:21:00,
2013-03-06 18:52:00,42.0,20.0,-100.00,WNW,296,3.0,5.0,41,0.00,,,0.00,20.000000,,2013-03-07 01:52:00,
2013-03-06 19:01:00,42.0,20.0,-100.00,WNW,296,3.0,5.0,41,0.00,,,0.00,20.000000,,2013-03-07 02:01:00,
2013-03-06 19:11:00,42.0,20.0,-100.00,WNW,296,3.0,5.0,41,0.00,,,0.00,20.000000,,2013-03-07 02:11:00,
2013-03-06 19:21:00,42.0,20.0,-100.00,WNW,296,3.0,5.0,41,0.00,,,0.00,20.000000,,2013-03-07 02:21:00,
2013-03-06 20:02:00,38.0,22.0,-100.00,WNW,287,4.0,7.0,51,0.00,,,0.00,1.000000,,2013-03-07 03:02:00,
2013-03-06 20:11:00,38.0,22.0,-100.00,WNW,287,4.0,7.0,51,0.00,,,0.00,1.000000,,2013-03-07 03:11:00,
2013-03-06 20:21:00,38.0,22.0,-100.00,WNW,287,4.0,7.0,51,0.00,,,0.00,1.000000,,2013-03-07 03:21:00,
2013-03-06 20:52:00,37.0,19.0,-100.00,WNW,298,4.0,9.0,48,0.00,,,0.00,1.000000,,2013-03-07 03:52:00,
2013-03-06 21:01:00,37.0,19.0,-100.00,WNW,298,4.0,9.0,48,0.00,,,0.00,1.000000,,2013-03-07 04:01:00,
2013-03-06 21:11:00,37.0,19.0,-100.00,WNW,298,4.0,9.0,48,0.00,,,0.00,1.000000,,2013-03-07 04:11:00,
2013-03-06 21:21:00,37.0,19.0,-100.00,WNW,298,4.0,9.0,48,0.00,,,0.00,1.000000,,2013-03-07 04:21:00,
2013-03-06 21:52:00,39.0,14.0,-100.00,WNW,282,4.0,8.0,35,0.00,,,0.00,1.000000,,2013-03-07 04:52:00,
2013-03-06 22:02:00,39.0,14.0,-100.00,WNW,282,4.0,8.0,35,0.00,,,0.00,1.000000,,2013-03-07 05:02:00,
2013-03-06 22:12:00,39.0,14.0,-100.00,WNW,282,4.0,8.0,35,0.00,,,0.00,1.000000,,2013-03-07 05:12:00,
2013-03-06 22:22:00,39.0,14.0,-100.00,WNW,282,4.0,8.0,35,0.00,,,0.00,1.000000,,2013-03-07 05:22:00,
2013-03-06 22:52:00,39.0,12.0,-100.00,WNW,282,4.0,7.0,33,0.00,,,0.00,1.000000,,2013-03-07 05:52:00,
2013-03-06 23:01:00,39.0,12.0,-100.00,WNW,282,4.0,7.0,33,0.00,,,0.00,1.000000,,2013-03-07 06:01:00,
2013-03-06 23:11:00,39.0,12.0,-100.00,WNW,282,4.0,7.0,33,0.00,,,0.00,1.000000,,2013-03-07 06:11:00,
2013-03-06 23:21:00,39.0,12.0,-100.00,WNW,282,4.0,7.0,33,0.00,,,0.00,1.000000,,2013-03-07 06:21:00,
2013-03-06 23:52:00,41.0,10.0,-100.00,East,83,2.0,7.0,28,0.00,,,-99.99,1.000000,,2013-03-07 06:52:00,